sensor_id;sensor_type;location;lat;lon;timestamp;noise_LAeq;noise_LA_min;noise_LA_max;noise_LA01;noise_LA95
77134;Laerm;25175;50.140;18.990;2024-02-04T00:01:39;40.33;36.44;53.71;;
77134;Laerm;25175;50.140;18.990;2024-02-04T00:04:46;39.78;34.75;54.11;;
77134;Laerm;25175;50.140;18.990;2024-02-04T00:07:52;40.94;34.12;59.98;;
77134;Laerm;25175;50.140;18.990;2024-02-04T00:10:57;39.45;34.72;47.69;;
77134;Laerm;25175;50.140;18.990;2024-02-04T00:14:03;38.67;35.22;50.87;;
77134;Laerm;25175;50.140;18.990;2024-02-04T00:17:07;37.85;34.18;48.66;;
77134;Laerm;25175;50.140;18.990;2024-02-04T00:20:15;39.50;34.32;55.62;;
77134;Laerm;25175;50.140;18.990;2024-02-04T00:23:24;38.35;34.14;49.53;;
77134;Laerm;25175;50.140;18.990;2024-02-04T00:26:31;40.61;36.79;56.46;;
77134;Laerm;25175;50.140;18.990;2024-02-04T00:29:35;37.66;34.58;48.17;;
77134;Laerm;25175;50.140;18.990;2024-02-04T00:32:41;38.47;34.45;51.52;;
77134;Laerm;25175;50.140;18.990;2024-02-04T00:35:48;37.46;34.14;56.15;;
77134;Laerm;25175;50.140;18.990;2024-02-04T00:38:54;36.34;34.05;43.75;;
77134;Laerm;25175;50.140;18.990;2024-02-04T00:41:58;36.24;33.78;51.22;;
77134;Laerm;25175;50.140;18.990;2024-02-04T00:45:04;36.64;33.61;45.01;;
77134;Laerm;25175;50.140;18.990;2024-02-04T00:48:09;36.87;33.69;48.49;;
77134;Laerm;25175;50.140;18.990;2024-02-04T00:51:17;36.40;33.70;44.35;;
77134;Laerm;25175;50.140;18.990;2024-02-04T00:54:22;37.00;33.79;49.96;;
77134;Laerm;25175;50.140;18.990;2024-02-04T00:57:27;36.54;33.67;47.52;;
77134;Laerm;25175;50.140;18.990;2024-02-04T01:00:32;37.11;34.08;57.41;;
77134;Laerm;25175;50.140;18.990;2024-02-04T01:03:38;36.99;33.64;56.87;;
77134;Laerm;25175;50.140;18.990;2024-02-04T01:06:45;39.93;34.02;64.65;;
77134;Laerm;25175;50.140;18.990;2024-02-04T01:09:50;37.93;34.38;54.11;;
77134;Laerm;25175;50.140;18.990;2024-02-04T01:12:55;39.24;34.01;52.10;;
77134;Laerm;25175;50.140;18.990;2024-02-04T01:16:00;37.33;34.14;49.17;;
77134;Laerm;25175;50.140;18.990;2024-02-04T01:19:05;37.71;33.96;52.97;;
77134;Laerm;25175;50.140;18.990;2024-02-04T01:22:13;39.60;34.22;62.22;;
77134;Laerm;25175;50.140;18.990;2024-02-04T01:25:17;41.20;34.78;57.50;;
77134;Laerm;25175;50.140;18.990;2024-02-04T01:28:23;37.01;34.41;45.36;;
77134;Laerm;25175;50.140;18.990;2024-02-04T01:31:27;37.98;34.56;57.06;;
77134;Laerm;25175;50.140;18.990;2024-02-04T01:34:36;38.97;34.72;63.91;;
77134;Laerm;25175;50.140;18.990;2024-02-04T01:37:43;37.45;34.08;59.05;;
77134;Laerm;25175;50.140;18.990;2024-02-04T01:40:50;38.91;34.65;62.52;;
77134;Laerm;25175;50.140;18.990;2024-02-04T01:43:55;37.69;34.99;50.14;;
77134;Laerm;25175;50.140;18.990;2024-02-04T01:47:01;38.18;34.73;58.94;;
77134;Laerm;25175;50.140;18.990;2024-02-04T01:50:07;40.67;35.72;57.78;;
77134;Laerm;25175;50.140;18.990;2024-02-04T01:53:17;38.45;34.58;53.39;;
77134;Laerm;25175;50.140;18.990;2024-02-04T01:56:24;40.82;36.56;52.66;;
77134;Laerm;25175;50.140;18.990;2024-02-04T01:59:30;38.59;34.82;50.89;;
77134;Laerm;25175;50.140;18.990;2024-02-04T02:02:41;42.56;35.64;56.39;;
77134;Laerm;25175;50.140;18.990;2024-02-04T02:05:48;38.62;34.92;61.36;;
77134;Laerm;25175;50.140;18.990;2024-02-04T02:09:01;37.92;34.53;45.59;;
77134;Laerm;25175;50.140;18.990;2024-02-04T02:12:16;41.40;33.68;61.07;;
77134;Laerm;25175;50.140;18.990;2024-02-04T02:15:30;38.66;34.08;55.01;;
77134;Laerm;25175;50.140;18.990;2024-02-04T02:18:52;36.40;33.49;48.01;;
77134;Laerm;25175;50.140;18.990;2024-02-04T02:22:18;40.94;33.81;58.30;;
77134;Laerm;25175;50.140;18.990;2024-02-04T02:25:36;37.48;33.65;56.70;;
77134;Laerm;25175;50.140;18.990;2024-02-04T02:28:45;38.72;35.24;52.73;;
77134;Laerm;25175;50.140;18.990;2024-02-04T02:32:03;37.94;34.05;51.11;;
77134;Laerm;25175;50.140;18.990;2024-02-04T02:35:08;39.20;34.80;54.71;;
77134;Laerm;25175;50.140;18.990;2024-02-04T02:38:35;44.19;37.09;56.00;;
77134;Laerm;25175;50.140;18.990;2024-02-04T02:41:59;48.79;42.68;58.64;;
77134;Laerm;25175;50.140;18.990;2024-02-04T02:45:30;46.41;41.58;57.52;;
77134;Laerm;25175;50.140;18.990;2024-02-04T02:48:39;45.04;39.72;57.33;;
77134;Laerm;25175;50.140;18.990;2024-02-04T02:51:59;42.86;37.91;55.60;;
77134;Laerm;25175;50.140;18.990;2024-02-04T02:55:06;41.40;36.22;55.65;;
77134;Laerm;25175;50.140;18.990;2024-02-04T02:58:17;38.95;35.44;52.75;;
77134;Laerm;25175;50.140;18.990;2024-02-04T03:01:26;41.48;35.36;55.98;;
77134;Laerm;25175;50.140;18.990;2024-02-04T03:04:40;40.18;35.53;54.40;;
77134;Laerm;25175;50.140;18.990;2024-02-04T03:07:51;40.82;34.37;54.86;;
77134;Laerm;25175;50.140;18.990;2024-02-04T03:11:02;39.06;34.79;53.67;;
77134;Laerm;25175;50.140;18.990;2024-02-04T03:14:29;39.24;34.81;54.81;;
77134;Laerm;25175;50.140;18.990;2024-02-04T03:17:36;38.96;34.24;53.63;;
77134;Laerm;25175;50.140;18.990;2024-02-04T03:20:46;37.73;33.88;45.07;;
77134;Laerm;25175;50.140;18.990;2024-02-04T03:24:01;37.01;33.28;43.21;;
77134;Laerm;25175;50.140;18.990;2024-02-04T03:27:10;36.67;33.18;43.86;;
77134;Laerm;25175;50.140;18.990;2024-02-04T03:30:27;36.07;33.20;43.66;;
77134;Laerm;25175;50.140;18.990;2024-02-04T03:33:37;36.78;33.85;46.40;;
77134;Laerm;25175;50.140;18.990;2024-02-04T03:36:44;37.47;33.82;54.29;;
77134;Laerm;25175;50.140;18.990;2024-02-04T03:39:57;36.59;33.53;53.16;;
77134;Laerm;25175;50.140;18.990;2024-02-04T03:43:08;35.68;33.18;48.58;;
77134;Laerm;25175;50.140;18.990;2024-02-04T03:46:16;38.02;33.71;50.15;;
77134;Laerm;25175;50.140;18.990;2024-02-04T03:49:25;37.00;33.44;50.19;;
77134;Laerm;25175;50.140;18.990;2024-02-04T03:52:42;40.24;33.72;56.46;;
77134;Laerm;25175;50.140;18.990;2024-02-04T03:55:51;36.16;33.52;47.49;;
77134;Laerm;25175;50.140;18.990;2024-02-04T03:58:59;35.36;33.23;40.53;;
77134;Laerm;25175;50.140;18.990;2024-02-04T04:02:14;38.86;33.17;55.10;;
77134;Laerm;25175;50.140;18.990;2024-02-04T04:05:22;36.44;33.38;47.58;;
77134;Laerm;25175;50.140;18.990;2024-02-04T04:08:53;36.40;33.50;46.47;;
77134;Laerm;25175;50.140;18.990;2024-02-04T04:12:01;37.44;34.08;47.86;;
77134;Laerm;25175;50.140;18.990;2024-02-04T04:15:09;36.07;33.52;44.49;;
77134;Laerm;25175;50.140;18.990;2024-02-04T04:18:20;35.80;33.31;42.08;;
77134;Laerm;25175;50.140;18.990;2024-02-04T04:21:38;37.38;34.21;53.54;;
77134;Laerm;25175;50.140;18.990;2024-02-04T04:24:50;36.13;33.68;43.25;;
77134;Laerm;25175;50.140;18.990;2024-02-04T04:28:02;38.82;33.86;53.15;;
77134;Laerm;25175;50.140;18.990;2024-02-04T04:31:16;38.30;33.79;53.01;;
77134;Laerm;25175;50.140;18.990;2024-02-04T04:34:29;37.80;33.62;56.10;;
77134;Laerm;25175;50.140;18.990;2024-02-04T04:37:36;42.89;35.09;60.89;;
77134;Laerm;25175;50.140;18.990;2024-02-04T04:40:43;39.72;34.57;59.53;;
77134;Laerm;25175;50.140;18.990;2024-02-04T04:43:53;40.82;34.49;57.46;;
77134;Laerm;25175;50.140;18.990;2024-02-04T04:47:04;42.55;34.71;52.83;;
77134;Laerm;25175;50.140;18.990;2024-02-04T04:50:14;46.86;41.69;53.75;;
77134;Laerm;25175;50.140;18.990;2024-02-04T04:53:23;47.15;42.09;59.39;;
77134;Laerm;25175;50.140;18.990;2024-02-04T04:56:27;47.31;41.60;53.88;;
77134;Laerm;25175;50.140;18.990;2024-02-04T04:59:34;48.03;42.58;58.01;;
77134;Laerm;25175;50.140;18.990;2024-02-04T05:02:42;47.16;42.94;56.44;;
77134;Laerm;25175;50.140;18.990;2024-02-04T05:06:00;43.22;36.84;60.95;;
77134;Laerm;25175;50.140;18.990;2024-02-04T05:09:12;38.74;35.18;47.98;;
77134;Laerm;25175;50.140;18.990;2024-02-04T05:12:37;38.19;35.20;52.75;;
77134;Laerm;25175;50.140;18.990;2024-02-04T05:15:48;39.74;35.45;51.54;;
77134;Laerm;25175;50.140;18.990;2024-02-04T05:19:08;41.69;34.90;53.89;;
77134;Laerm;25175;50.140;18.990;2024-02-04T05:22:19;40.10;34.18;53.72;;
77134;Laerm;25175;50.140;18.990;2024-02-04T05:25:29;39.79;34.90;54.13;;
77134;Laerm;25175;50.140;18.990;2024-02-04T05:28:48;39.11;35.03;53.16;;
77134;Laerm;25175;50.140;18.990;2024-02-04T05:32:00;45.13;36.08;65.81;;
77134;Laerm;25175;50.140;18.990;2024-02-04T05:35:21;41.84;36.20;57.00;;
77134;Laerm;25175;50.140;18.990;2024-02-04T05:38:38;41.44;34.82;59.70;;
77134;Laerm;25175;50.140;18.990;2024-02-04T05:41:49;50.81;35.67;75.40;;
77134;Laerm;25175;50.140;18.990;2024-02-04T05:45:06;47.64;35.97;75.69;;
77134;Laerm;25175;50.140;18.990;2024-02-04T05:48:17;43.82;36.59;65.62;;
77134;Laerm;25175;50.140;18.990;2024-02-04T05:51:43;40.72;36.04;55.57;;
77134;Laerm;25175;50.140;18.990;2024-02-04T05:54:55;42.38;36.10;54.45;;
77134;Laerm;25175;50.140;18.990;2024-02-04T05:58:07;41.53;36.28;59.69;;
77134;Laerm;25175;50.140;18.990;2024-02-04T06:01:20;43.01;35.70;61.39;;
77134;Laerm;25175;50.140;18.990;2024-02-04T06:04:35;47.87;37.79;63.48;;
77134;Laerm;25175;50.140;18.990;2024-02-04T06:07:46;47.59;37.85;77.39;;
77134;Laerm;25175;50.140;18.990;2024-02-04T06:11:01;44.93;37.64;60.48;;
77134;Laerm;25175;50.140;18.990;2024-02-04T06:14:14;41.86;36.00;54.93;;
77134;Laerm;25175;50.140;18.990;2024-02-04T06:17:23;42.64;36.78;53.79;;
77134;Laerm;25175;50.140;18.990;2024-02-04T06:20:33;45.18;36.75;59.20;;
77134;Laerm;25175;50.140;18.990;2024-02-04T06:23:56;41.95;35.81;56.97;;
77134;Laerm;25175;50.140;18.990;2024-02-04T06:27:17;42.56;36.03;56.27;;
77134;Laerm;25175;50.140;18.990;2024-02-04T06:30:32;41.06;35.84;53.13;;
77134;Laerm;25175;50.140;18.990;2024-02-04T06:33:48;48.77;38.50;60.95;;
77134;Laerm;25175;50.140;18.990;2024-02-04T06:37:03;48.55;36.64;75.91;;
77134;Laerm;25175;50.140;18.990;2024-02-04T06:40:23;45.59;35.75;58.17;;
77134;Laerm;25175;50.140;18.990;2024-02-04T06:43:43;44.56;36.82;56.74;;
77134;Laerm;25175;50.140;18.990;2024-02-04T06:46:51;44.55;37.12;58.45;;
77134;Laerm;25175;50.140;18.990;2024-02-04T06:50:07;42.46;35.77;57.69;;
77134;Laerm;25175;50.140;18.990;2024-02-04T06:53:24;43.53;35.38;65.97;;
77134;Laerm;25175;50.140;18.990;2024-02-04T06:56:59;45.17;36.09;62.83;;
77134;Laerm;25175;50.140;18.990;2024-02-04T07:00:19;43.64;36.10;53.82;;
77134;Laerm;25175;50.140;18.990;2024-02-04T07:03:36;41.09;36.13;56.74;;
77134;Laerm;25175;50.140;18.990;2024-02-04T07:06:47;40.40;35.42;50.50;;
77134;Laerm;25175;50.140;18.990;2024-02-04T07:09:58;43.87;36.53;57.23;;
77134;Laerm;25175;50.140;18.990;2024-02-04T07:13:12;44.41;36.21;62.65;;
77134;Laerm;25175;50.140;18.990;2024-02-04T07:16:22;44.15;35.76;58.75;;
77134;Laerm;25175;50.140;18.990;2024-02-04T07:19:37;45.42;37.21;62.74;;
77134;Laerm;25175;50.140;18.990;2024-02-04T07:22:54;46.66;38.22;62.94;;
77134;Laerm;25175;50.140;18.990;2024-02-04T07:26:02;44.50;36.10;58.22;;
77134;Laerm;25175;50.140;18.990;2024-02-04T07:29:09;40.18;35.15;47.14;;
77134;Laerm;25175;50.140;18.990;2024-02-04T07:32:26;44.31;36.54;63.51;;
77134;Laerm;25175;50.140;18.990;2024-02-04T07:35:37;45.09;35.58;60.92;;
77134;Laerm;25175;50.140;18.990;2024-02-04T07:38:54;44.32;36.37;57.11;;
77134;Laerm;25175;50.140;18.990;2024-02-04T07:42:32;43.81;37.32;54.78;;
77134;Laerm;25175;50.140;18.990;2024-02-04T07:45:41;46.60;38.53;59.29;;
77134;Laerm;25175;50.140;18.990;2024-02-04T07:49:00;45.86;36.78;54.91;;
77134;Laerm;25175;50.140;18.990;2024-02-04T07:52:12;47.88;38.60;60.97;;
77134;Laerm;25175;50.140;18.990;2024-02-04T07:55:20;44.36;38.18;54.28;;
77134;Laerm;25175;50.140;18.990;2024-02-04T07:58:30;48.12;39.29;59.87;;
77134;Laerm;25175;50.140;18.990;2024-02-04T08:01:49;47.77;37.80;57.51;;
77134;Laerm;25175;50.140;18.990;2024-02-04T08:05:12;45.55;35.90;58.30;;
77134;Laerm;25175;50.140;18.990;2024-02-04T08:08:31;39.40;36.01;47.51;;
77134;Laerm;25175;50.140;18.990;2024-02-04T08:11:42;45.15;35.85;60.50;;
77134;Laerm;25175;50.140;18.990;2024-02-04T08:14:51;42.74;36.27;57.77;;
77134;Laerm;25175;50.140;18.990;2024-02-04T08:18:02;42.99;35.99;56.22;;
77134;Laerm;25175;50.140;18.990;2024-02-04T08:21:26;42.17;35.68;58.60;;
77134;Laerm;25175;50.140;18.990;2024-02-04T08:24:41;39.98;34.52;55.74;;
77134;Laerm;25175;50.140;18.990;2024-02-04T08:27:54;40.45;34.66;54.56;;
77134;Laerm;25175;50.140;18.990;2024-02-04T08:31:10;44.03;35.10;58.38;;
77134;Laerm;25175;50.140;18.990;2024-02-04T08:42:59;39.60;34.80;54.12;;
77134;Laerm;25175;50.140;18.990;2024-02-04T08:46:30;40.42;35.13;52.74;;
77134;Laerm;25175;50.140;18.990;2024-02-04T08:49:44;41.28;34.70;56.68;;
77134;Laerm;25175;50.140;18.990;2024-02-04T08:52:59;44.18;34.10;66.43;;
77134;Laerm;25175;50.140;18.990;2024-02-04T08:56:14;45.24;35.02;60.05;;
77134;Laerm;25175;50.140;18.990;2024-02-04T08:59:34;43.37;35.93;56.40;;
77134;Laerm;25175;50.140;18.990;2024-02-04T09:03:00;43.36;35.81;56.41;;
77134;Laerm;25175;50.140;18.990;2024-02-04T09:06:09;40.82;35.05;55.02;;
77134;Laerm;25175;50.140;18.990;2024-02-04T09:09:18;42.10;34.46;58.11;;
77134;Laerm;25175;50.140;18.990;2024-02-04T09:12:56;47.86;34.57;64.98;;
77134;Laerm;25175;50.140;18.990;2024-02-04T09:17:09;42.03;33.75;60.57;;
77134;Laerm;25175;50.140;18.990;2024-02-04T09:20:36;42.79;34.77;61.23;;
77134;Laerm;25175;50.140;18.990;2024-02-04T09:24:06;42.83;34.99;55.08;;
77134;Laerm;25175;50.140;18.990;2024-02-04T09:27:20;42.09;34.66;55.38;;
77134;Laerm;25175;50.140;18.990;2024-02-04T09:30:45;43.40;34.82;57.20;;
77134;Laerm;25175;50.140;18.990;2024-02-04T09:35:25;43.93;34.62;56.36;;
77134;Laerm;25175;50.140;18.990;2024-02-04T09:38:36;42.88;34.63;56.08;;
77134;Laerm;25175;50.140;18.990;2024-02-04T09:41:55;40.57;34.21;54.29;;
77134;Laerm;25175;50.140;18.990;2024-02-04T09:49:59;44.14;34.89;58.88;;
77134;Laerm;25175;50.140;18.990;2024-02-04T09:53:21;42.06;34.86;56.43;;
77134;Laerm;25175;50.140;18.990;2024-02-04T09:56:35;45.40;34.78;59.54;;
77134;Laerm;25175;50.140;18.990;2024-02-04T09:59:50;41.68;35.44;58.21;;
77134;Laerm;25175;50.140;18.990;2024-02-04T10:03:04;46.31;35.92;56.97;;
77134;Laerm;25175;50.140;18.990;2024-02-04T10:06:16;43.21;35.18;57.44;;
77134;Laerm;25175;50.140;18.990;2024-02-04T10:09:30;43.92;35.70;55.67;;
77134;Laerm;25175;50.140;18.990;2024-02-04T10:12:37;41.64;35.02;67.51;;
77134;Laerm;25175;50.140;18.990;2024-02-04T10:16:09;46.86;34.67;73.81;;
77134;Laerm;25175;50.140;18.990;2024-02-04T10:24:44;43.15;34.45;58.28;;
77134;Laerm;25175;50.140;18.990;2024-02-04T10:28:20;42.38;34.26;56.74;;
77134;Laerm;25175;50.140;18.990;2024-02-04T10:32:49;48.24;34.35;62.75;;
77134;Laerm;25175;50.140;18.990;2024-02-04T10:36:17;43.45;35.76;56.50;;
77134;Laerm;25175;50.140;18.990;2024-02-04T10:39:31;42.76;35.39;53.28;;
77134;Laerm;25175;50.140;18.990;2024-02-04T10:48:19;44.63;35.47;68.03;;
77134;Laerm;25175;50.140;18.990;2024-02-04T10:51:39;45.84;36.23;58.90;;
77134;Laerm;25175;50.140;18.990;2024-02-04T10:54:55;44.95;34.89;60.51;;
77134;Laerm;25175;50.140;18.990;2024-02-04T10:58:13;45.32;34.82;61.90;;
77134;Laerm;25175;50.140;18.990;2024-02-04T11:01:26;45.35;35.88;57.39;;
77134;Laerm;25175;50.140;18.990;2024-02-04T11:04:43;46.38;34.77;65.81;;
77134;Laerm;25175;50.140;18.990;2024-02-04T11:08:04;44.34;34.30;57.45;;
77134;Laerm;25175;50.140;18.990;2024-02-04T11:11:21;43.12;34.37;61.41;;
77134;Laerm;25175;50.140;18.990;2024-02-04T11:14:39;43.10;33.91;60.16;;
77134;Laerm;25175;50.140;18.990;2024-02-04T11:26:24;42.56;33.82;58.86;;
77134;Laerm;25175;50.140;18.990;2024-02-04T11:29:37;40.19;34.47;55.96;;
77134;Laerm;25175;50.140;18.990;2024-02-04T11:32:47;43.67;34.67;59.30;;
77134;Laerm;25175;50.140;18.990;2024-02-04T11:36:04;44.25;35.02;58.50;;
77134;Laerm;25175;50.140;18.990;2024-02-04T11:39:18;41.88;35.71;55.12;;
77134;Laerm;25175;50.140;18.990;2024-02-04T11:42:32;42.45;34.49;57.62;;
77134;Laerm;25175;50.140;18.990;2024-02-04T11:45:39;40.01;33.97;57.27;;
77134;Laerm;25175;50.140;18.990;2024-02-04T11:48:52;42.86;34.75;60.26;;
77134;Laerm;25175;50.140;18.990;2024-02-04T11:51:59;42.39;35.71;56.10;;
77134;Laerm;25175;50.140;18.990;2024-02-04T11:55:12;43.44;35.80;57.17;;
77134;Laerm;25175;50.140;18.990;2024-02-04T11:58:20;42.95;35.81;56.87;;
77134;Laerm;25175;50.140;18.990;2024-02-04T12:01:25;43.67;37.83;54.37;;
77134;Laerm;25175;50.140;18.990;2024-02-04T12:04:32;45.81;38.30;59.29;;
77134;Laerm;25175;50.140;18.990;2024-02-04T12:07:39;49.79;39.87;59.67;;
77134;Laerm;25175;50.140;18.990;2024-02-04T12:10:46;49.93;38.48;64.26;;
77134;Laerm;25175;50.140;18.990;2024-02-04T12:13:57;46.75;36.48;59.02;;
77134;Laerm;25175;50.140;18.990;2024-02-04T12:17:08;45.52;36.80;59.61;;
77134;Laerm;25175;50.140;18.990;2024-02-04T12:20:13;47.60;36.98;60.84;;
77134;Laerm;25175;50.140;18.990;2024-02-04T12:23:19;47.10;38.98;58.89;;
77134;Laerm;25175;50.140;18.990;2024-02-04T12:26:26;48.34;43.44;59.81;;
77134;Laerm;25175;50.140;18.990;2024-02-04T12:29:35;46.56;39.57;59.64;;
77134;Laerm;25175;50.140;18.990;2024-02-04T12:32:39;43.95;38.09;59.15;;
77134;Laerm;25175;50.140;18.990;2024-02-04T12:35:49;44.16;35.54;61.78;;
77134;Laerm;25175;50.140;18.990;2024-02-04T12:39:02;45.73;35.89;58.26;;
77134;Laerm;25175;50.140;18.990;2024-02-04T12:42:15;44.49;35.49;58.50;;
77134;Laerm;25175;50.140;18.990;2024-02-04T12:45:28;48.33;37.80;59.66;;
77134;Laerm;25175;50.140;18.990;2024-02-04T12:48:34;51.38;41.73;70.91;;
77134;Laerm;25175;50.140;18.990;2024-02-04T12:51:38;48.14;39.63;58.15;;
77134;Laerm;25175;50.140;18.990;2024-02-04T12:54:44;44.45;39.53;55.26;;
77134;Laerm;25175;50.140;18.990;2024-02-04T12:57:49;47.23;40.05;62.34;;
77134;Laerm;25175;50.140;18.990;2024-02-04T13:01:03;46.56;37.24;61.55;;
77134;Laerm;25175;50.140;18.990;2024-02-04T13:04:08;46.30;38.38;60.03;;
77134;Laerm;25175;50.140;18.990;2024-02-04T13:07:14;47.58;40.37;62.72;;
77134;Laerm;25175;50.140;18.990;2024-02-04T13:10:19;46.76;38.77;62.82;;
77134;Laerm;25175;50.140;18.990;2024-02-04T13:13:39;45.13;36.61;57.06;;
77134;Laerm;25175;50.140;18.990;2024-02-04T13:16:59;46.86;36.51;61.39;;
77134;Laerm;25175;50.140;18.990;2024-02-04T13:20:07;44.71;39.24;62.16;;
77134;Laerm;25175;50.140;18.990;2024-02-04T13:23:12;48.14;41.04;63.28;;
77134;Laerm;25175;50.140;18.990;2024-02-04T13:26:18;48.07;40.27;61.98;;
77134;Laerm;25175;50.140;18.990;2024-02-04T13:29:23;47.96;36.13;62.52;;
77134;Laerm;25175;50.140;18.990;2024-02-04T13:32:31;41.53;35.68;56.94;;
77134;Laerm;25175;50.140;18.990;2024-02-04T13:35:35;44.13;35.81;58.55;;
77134;Laerm;25175;50.140;18.990;2024-02-04T13:38:42;47.92;36.98;62.32;;
77134;Laerm;25175;50.140;18.990;2024-02-04T13:41:47;49.02;43.30;60.71;;
77134;Laerm;25175;50.140;18.990;2024-02-04T13:44:52;49.68;43.90;63.44;;
77134;Laerm;25175;50.140;18.990;2024-02-04T13:47:59;49.84;38.66;64.36;;
77134;Laerm;25175;50.140;18.990;2024-02-04T13:51:05;43.92;37.86;56.79;;
77134;Laerm;25175;50.140;18.990;2024-02-04T13:54:09;46.21;36.89;63.25;;
77134;Laerm;25175;50.140;18.990;2024-02-04T13:57:17;44.91;37.01;60.83;;
77134;Laerm;25175;50.140;18.990;2024-02-04T14:00:24;43.25;36.33;58.61;;
77134;Laerm;25175;50.140;18.990;2024-02-04T14:03:32;44.80;38.53;56.54;;
77134;Laerm;25175;50.140;18.990;2024-02-04T14:06:37;46.89;36.90;66.36;;
77134;Laerm;25175;50.140;18.990;2024-02-04T14:09:42;44.31;36.88;58.36;;
77134;Laerm;25175;50.140;18.990;2024-02-04T14:12:47;47.10;39.26;59.26;;
77134;Laerm;25175;50.140;18.990;2024-02-04T14:15:52;45.34;37.91;58.84;;
77134;Laerm;25175;50.140;18.990;2024-02-04T14:19:00;46.63;38.76;67.17;;
77134;Laerm;25175;50.140;18.990;2024-02-04T14:22:05;45.48;37.93;59.28;;
77134;Laerm;25175;50.140;18.990;2024-02-04T14:25:10;45.49;38.45;59.32;;
77134;Laerm;25175;50.140;18.990;2024-02-04T14:28:20;48.61;37.57;68.02;;
77134;Laerm;25175;50.140;18.990;2024-02-04T14:31:30;45.27;37.22;57.80;;
77134;Laerm;25175;50.140;18.990;2024-02-04T14:34:38;46.08;37.23;59.08;;
77134;Laerm;25175;50.140;18.990;2024-02-04T14:37:43;47.73;37.07;63.73;;
77134;Laerm;25175;50.140;18.990;2024-02-04T14:40:49;45.27;37.11;56.36;;
77134;Laerm;25175;50.140;18.990;2024-02-04T14:43:54;43.09;36.07;56.80;;
77134;Laerm;25175;50.140;18.990;2024-02-04T14:46:59;47.01;36.44;68.08;;
77134;Laerm;25175;50.140;18.990;2024-02-04T14:50:07;41.37;36.07;56.89;;
77134;Laerm;25175;50.140;18.990;2024-02-04T14:53:13;41.25;35.74;57.63;;
77134;Laerm;25175;50.140;18.990;2024-02-04T14:56:17;44.99;36.30;56.56;;
77134;Laerm;25175;50.140;18.990;2024-02-04T14:59:25;43.10;36.96;61.25;;
77134;Laerm;25175;50.140;18.990;2024-02-04T15:02:30;44.88;37.64;55.56;;
77134;Laerm;25175;50.140;18.990;2024-02-04T15:05:40;42.55;36.02;59.20;;
77134;Laerm;25175;50.140;18.990;2024-02-04T15:08:46;44.60;36.75;56.46;;
77134;Laerm;25175;50.140;18.990;2024-02-04T15:11:52;42.85;36.68;55.37;;
77134;Laerm;25175;50.140;18.990;2024-02-04T15:14:58;44.68;38.43;58.01;;
77134;Laerm;25175;50.140;18.990;2024-02-04T15:18:05;45.13;38.53;59.00;;
77134;Laerm;25175;50.140;18.990;2024-02-04T15:21:13;45.41;38.11;59.21;;
77134;Laerm;25175;50.140;18.990;2024-02-04T15:24:20;45.56;38.84;58.46;;
77134;Laerm;25175;50.140;18.990;2024-02-04T15:27:27;45.47;37.84;61.24;;
77134;Laerm;25175;50.140;18.990;2024-02-04T15:30:33;44.89;37.49;62.72;;
77134;Laerm;25175;50.140;18.990;2024-02-04T15:33:39;48.50;37.59;61.71;;
77134;Laerm;25175;50.140;18.990;2024-02-04T15:36:48;47.79;37.33;60.83;;
77134;Laerm;25175;50.140;18.990;2024-02-04T15:39:53;46.70;40.87;57.07;;
77134;Laerm;25175;50.140;18.990;2024-02-04T15:42:59;45.39;40.61;58.91;;
77134;Laerm;25175;50.140;18.990;2024-02-04T15:46:08;42.68;38.39;54.00;;
77134;Laerm;25175;50.140;18.990;2024-02-04T15:49:16;46.54;39.49;57.70;;
77134;Laerm;25175;50.140;18.990;2024-02-04T15:52:25;46.83;39.99;59.76;;
77134;Laerm;25175;50.140;18.990;2024-02-04T15:55:34;50.05;42.41;61.65;;
77134;Laerm;25175;50.140;18.990;2024-02-04T15:58:41;45.52;38.98;57.66;;
77134;Laerm;25175;50.140;18.990;2024-02-04T16:01:50;48.77;37.56;60.82;;
77134;Laerm;25175;50.140;18.990;2024-02-04T16:04:59;46.09;36.57;59.92;;
77134;Laerm;25175;50.140;18.990;2024-02-04T16:08:09;45.39;36.56;58.07;;
77134;Laerm;25175;50.140;18.990;2024-02-04T16:11:19;47.01;37.31;60.78;;
77134;Laerm;25175;50.140;18.990;2024-02-04T16:14:36;46.43;36.42;62.89;;
77134;Laerm;25175;50.140;18.990;2024-02-04T16:17:44;42.24;36.64;54.08;;
77134;Laerm;25175;50.140;18.990;2024-02-04T16:20:51;46.60;35.33;61.80;;
77134;Laerm;25175;50.140;18.990;2024-02-04T16:24:00;44.34;36.30;58.52;;
77134;Laerm;25175;50.140;18.990;2024-02-04T16:27:06;44.18;36.59;55.89;;
77134;Laerm;25175;50.140;18.990;2024-02-04T16:30:12;47.26;36.70;63.57;;
77134;Laerm;25175;50.140;18.990;2024-02-04T16:33:19;44.23;38.06;60.73;;
77134;Laerm;25175;50.140;18.990;2024-02-04T16:36:24;44.68;39.07;58.35;;
77134;Laerm;25175;50.140;18.990;2024-02-04T16:39:33;48.81;38.53;68.59;;
77134;Laerm;25175;50.140;18.990;2024-02-04T16:42:38;46.85;39.08;57.43;;
77134;Laerm;25175;50.140;18.990;2024-02-04T16:45:44;44.79;39.62;57.56;;
77134;Laerm;25175;50.140;18.990;2024-02-04T16:48:48;47.00;38.32;62.95;;
77134;Laerm;25175;50.140;18.990;2024-02-04T16:51:54;40.08;36.54;47.17;;
77134;Laerm;25175;50.140;18.990;2024-02-04T16:55:01;43.95;37.54;58.89;;
77134;Laerm;25175;50.140;18.990;2024-02-04T16:58:09;45.51;36.40;60.53;;
77134;Laerm;25175;50.140;18.990;2024-02-04T17:01:14;39.82;35.99;50.77;;
77134;Laerm;25175;50.140;18.990;2024-02-04T17:04:20;45.78;37.38;56.18;;
77134;Laerm;25175;50.140;18.990;2024-02-04T17:07:26;46.98;37.44;65.46;;
77134;Laerm;25175;50.140;18.990;2024-02-04T17:10:36;45.68;37.98;60.21;;
77134;Laerm;25175;50.140;18.990;2024-02-04T17:13:42;47.64;38.81;62.51;;
77134;Laerm;25175;50.140;18.990;2024-02-04T17:17:01;41.38;37.70;51.50;;
77134;Laerm;25175;50.140;18.990;2024-02-04T17:20:14;47.44;38.68;61.21;;
77134;Laerm;25175;50.140;18.990;2024-02-04T17:23:28;47.02;38.90;62.03;;
77134;Laerm;25175;50.140;18.990;2024-02-04T17:26:38;44.25;37.68;55.56;;
77134;Laerm;25175;50.140;18.990;2024-02-04T17:29:46;43.27;36.99;55.31;;
77134;Laerm;25175;50.140;18.990;2024-02-04T17:32:53;42.30;36.37;57.84;;
77134;Laerm;25175;50.140;18.990;2024-02-04T17:35:59;41.69;36.16;60.35;;
77134;Laerm;25175;50.140;18.990;2024-02-04T17:39:04;42.71;37.40;57.48;;
77134;Laerm;25175;50.140;18.990;2024-02-04T17:42:14;42.31;36.83;56.51;;
77134;Laerm;25175;50.140;18.990;2024-02-04T17:45:18;48.16;37.32;71.43;;
77134;Laerm;25175;50.140;18.990;2024-02-04T17:48:28;45.33;38.36;56.70;;
77134;Laerm;25175;50.140;18.990;2024-02-04T17:51:42;45.45;37.37;71.46;;
77134;Laerm;25175;50.140;18.990;2024-02-04T17:54:53;46.90;37.90;61.84;;
77134;Laerm;25175;50.140;18.990;2024-02-04T17:58:03;43.78;35.98;56.85;;
77134;Laerm;25175;50.140;18.990;2024-02-04T18:01:08;44.97;36.58;59.37;;
77134;Laerm;25175;50.140;18.990;2024-02-04T18:04:13;44.51;36.24;58.57;;
77134;Laerm;25175;50.140;18.990;2024-02-04T18:07:18;43.84;35.90;58.52;;
77134;Laerm;25175;50.140;18.990;2024-02-04T18:10:23;45.24;36.86;59.65;;